sensor_id;sensor_type;location;lat;lon;timestamp;pressure;altitude;pressure_sealevel;temperature
40624;BMP280;26325;48.594;11.650;2022-10-16T00:00:53;96661.88;;;13.82
40624;BMP280;26325;48.594;11.650;2022-10-16T00:03:18;96659.25;;;13.68
40624;BMP280;26325;48.594;11.650;2022-10-16T00:05:44;96654.31;;;13.71
40624;BMP280;26325;48.594;11.650;2022-10-16T00:08:12;96645.75;;;13.71
40624;BMP280;26325;48.594;11.650;2022-10-16T00:10:39;96651.00;;;13.85
40624;BMP280;26325;48.594;11.650;2022-10-16T00:13:05;96650.75;;;14.06
40624;BMP280;26325;48.594;11.650;2022-10-16T00:15:34;96662.97;;;14.06
40624;BMP280;26325;48.594;11.650;2022-10-16T00:18:01;96668.44;;;14.09
40624;BMP280;26325;48.594;11.650;2022-10-16T00:20:27;96676.94;;;13.85
40624;BMP280;26325;48.594;11.650;2022-10-16T00:22:52;96682.09;;;13.66
40624;BMP280;26325;48.594;11.650;2022-10-16T00:25:18;96691.91;;;13.49
40624;BMP280;26325;48.594;11.650;2022-10-16T00:27:44;96694.56;;;13.73
40624;BMP280;26325;48.594;11.650;2022-10-16T00:30:09;96678.13;;;13.44
40624;BMP280;26325;48.594;11.650;2022-10-16T00:32:35;96665.97;;;13.54
40624;BMP280;26325;48.594;11.650;2022-10-16T00:35:00;96667.81;;;13.78
40624;BMP280;26325;48.594;11.650;2022-10-16T00:37:26;96654.06;;;13.72
40624;BMP280;26325;48.594;11.650;2022-10-16T00:39:51;96668.13;;;13.86
40624;BMP280;26325;48.594;11.650;2022-10-16T00:42:18;96658.47;;;13.77
40624;BMP280;26325;48.594;11.650;2022-10-16T00:44:50;96651.97;;;13.70
40624;BMP280;26325;48.594;11.650;2022-10-16T00:52:27;96680.63;;;13.84
40624;BMP280;26325;48.594;11.650;2022-10-16T00:54:53;96683.72;;;13.96
40624;BMP280;26325;48.594;11.650;2022-10-16T00:57:19;96689.13;;;13.80
40624;BMP280;26325;48.594;11.650;2022-10-16T00:59:45;96686.31;;;13.91
40624;BMP280;26325;48.594;11.650;2022-10-16T01:02:13;96697.25;;;13.98
40624;BMP280;26325;48.594;11.650;2022-10-16T01:04:45;96710.19;;;13.83
40624;BMP280;26325;48.594;11.650;2022-10-16T01:12:36;96700.25;;;13.66
40624;BMP280;26325;48.594;11.650;2022-10-16T01:17:39;96699.72;;;13.59
40624;BMP280;26325;48.594;11.650;2022-10-16T01:22:54;96677.88;;;13.40
40624;BMP280;26325;48.594;11.650;2022-10-16T01:25:39;96690.13;;;13.64
40624;BMP280;26325;48.594;11.650;2022-10-16T01:28:11;96689.06;;;13.60
40624;BMP280;26325;48.594;11.650;2022-10-16T01:30:38;96688.28;;;13.50
40624;BMP280;26325;48.594;11.650;2022-10-16T01:33:23;96693.72;;;13.53
40624;BMP280;26325;48.594;11.650;2022-10-16T01:35:54;96702.56;;;13.62
40624;BMP280;26325;48.594;11.650;2022-10-16T01:38:28;96700.75;;;13.58
40624;BMP280;26325;48.594;11.650;2022-10-16T01:40:58;96704.88;;;13.49
40624;BMP280;26325;48.594;11.650;2022-10-16T01:43:28;96698.66;;;13.55
40624;BMP280;26325;48.594;11.650;2022-10-16T01:45:58;96695.03;;;13.56
40624;BMP280;26325;48.594;11.650;2022-10-16T01:48:24;96685.22;;;13.68
40624;BMP280;26325;48.594;11.650;2022-10-16T01:51:06;96693.47;;;13.50
40624;BMP280;26325;48.594;11.650;2022-10-16T01:53:34;96694.75;;;13.48
40624;BMP280;26325;48.594;11.650;2022-10-16T01:56:00;96691.09;;;13.44
40624;BMP280;26325;48.594;11.650;2022-10-16T01:58:29;96702.31;;;13.59
40624;BMP280;26325;48.594;11.650;2022-10-16T02:00:59;96698.66;;;13.60
40624;BMP280;26325;48.594;11.650;2022-10-16T02:03:26;96710.59;;;13.61
40624;BMP280;26325;48.594;11.650;2022-10-16T02:05:54;96704.84;;;13.44
40624;BMP280;26325;48.594;11.650;2022-10-16T02:08:21;96698.63;;;13.40
40624;BMP280;26325;48.594;11.650;2022-10-16T02:10:47;96709.53;;;13.47
40624;BMP280;26325;48.594;11.650;2022-10-16T02:13:42;96707.44;;;13.39
40624;BMP280;26325;48.594;11.650;2022-10-16T02:16:11;96706.31;;;13.26
40624;BMP280;26325;48.594;11.650;2022-10-16T02:18:37;96698.31;;;13.32
40624;BMP280;26325;48.594;11.650;2022-10-16T02:21:28;96710.56;;;13.41
40624;BMP280;26325;48.594;11.650;2022-10-16T02:24:19;96715.22;;;13.39
40624;BMP280;26325;48.594;11.650;2022-10-16T02:26:46;96711.31;;;13.37
40624;BMP280;26325;48.594;11.650;2022-10-16T02:29:17;96710.56;;;13.41
40624;BMP280;26325;48.594;11.650;2022-10-16T02:31:47;96704.59;;;13.46
40624;BMP280;26325;48.594;11.650;2022-10-16T02:34:17;96698.91;;;13.53
40624;BMP280;26325;48.594;11.650;2022-10-16T02:36:43;96704.41;;;13.67
40624;BMP280;26325;48.594;11.650;2022-10-16T02:39:09;96702.53;;;13.52
40624;BMP280;26325;48.594;11.650;2022-10-16T02:41:38;96702.91;;;13.15
40624;BMP280;26325;48.594;11.650;2022-10-16T02:44:03;96706.56;;;13.19
40624;BMP280;26325;48.594;11.650;2022-10-16T02:46:31;96702.19;;;13.30
40624;BMP280;26325;48.594;11.650;2022-10-16T02:48:57;96707.81;;;13.07
40624;BMP280;26325;48.594;11.650;2022-10-16T02:51:22;96688.69;;;13.28
40624;BMP280;26325;48.594;11.650;2022-10-16T02:53:48;96694.06;;;13.12
40624;BMP280;26325;48.594;11.650;2022-10-16T02:56:13;96697.28;;;13.33
40624;BMP280;26325;48.594;11.650;2022-10-16T02:58:39;96696.22;;;13.34
40624;BMP280;26325;48.594;11.650;2022-10-16T03:01:06;96699.59;;;13.30
40624;BMP280;26325;48.594;11.650;2022-10-16T03:03:32;96703.53;;;13.37
40624;BMP280;26325;48.594;11.650;2022-10-16T03:05:57;96701.53;;;12.98
40624;BMP280;26325;48.594;11.650;2022-10-16T03:08:23;96704.63;;;12.95
40624;BMP280;26325;48.594;11.650;2022-10-16T03:10:50;96707.94;;;12.86
40624;BMP280;26325;48.594;11.650;2022-10-16T03:13:16;96713.91;;;12.92
40624;BMP280;26325;48.594;11.650;2022-10-16T03:15:45;96710.84;;;12.95
40624;BMP280;26325;48.594;11.650;2022-10-16T03:18:10;96700.03;;;13.12
40624;BMP280;26325;48.594;11.650;2022-10-16T03:20:36;96717.16;;;13.13
40624;BMP280;26325;48.594;11.650;2022-10-16T03:23:01;96709.94;;;13.20
40624;BMP280;26325;48.594;11.650;2022-10-16T03:25:27;96721.97;;;12.90
40624;BMP280;26325;48.594;11.650;2022-10-16T03:27:53;96711.13;;;13.03
40624;BMP280;26325;48.594;11.650;2022-10-16T03:30:18;96707.81;;;13.17
40624;BMP280;26325;48.594;11.650;2022-10-16T03:32:44;96723.44;;;13.27
40624;BMP280;26325;48.594;11.650;2022-10-16T03:35:10;96727.34;;;13.29
40624;BMP280;26325;48.594;11.650;2022-10-16T03:37:35;96726.50;;;13.19
40624;BMP280;26325;48.594;11.650;2022-10-16T03:40:02;96719.25;;;13.16
40624;BMP280;26325;48.594;11.650;2022-10-16T03:42:28;96723.38;;;13.17
40624;BMP280;26325;48.594;11.650;2022-10-16T03:44:53;96728.06;;;13.20
40624;BMP280;26325;48.594;11.650;2022-10-16T03:47:21;96724.59;;;13.00
40624;BMP280;26325;48.594;11.650;2022-10-16T03:49:49;96728.66;;;12.86
40624;BMP280;26325;48.594;11.650;2022-10-16T03:52:14;96717.50;;;12.81
40624;BMP280;26325;48.594;11.650;2022-10-16T03:54:40;96719.09;;;12.92
40624;BMP280;26325;48.594;11.650;2022-10-16T03:57:05;96726.22;;;13.11
40624;BMP280;26325;48.594;11.650;2022-10-16T03:59:30;96734.06;;;13.20
40624;BMP280;26325;48.594;11.650;2022-10-16T04:01:56;96739.53;;;13.24
40624;BMP280;26325;48.594;11.650;2022-10-16T04:04:21;96747.44;;;13.08
40624;BMP280;26325;48.594;11.650;2022-10-16T04:06:47;96745.81;;;12.92
40624;BMP280;26325;48.594;11.650;2022-10-16T04:09:12;96743.31;;;13.07
40624;BMP280;26325;48.594;11.650;2022-10-16T04:11:38;96733.75;;;13.12
40624;BMP280;26325;48.594;11.650;2022-10-16T04:14:04;96732.69;;;13.08
40624;BMP280;26325;48.594;11.650;2022-10-16T04:16:31;96743.19;;;13.33
40624;BMP280;26325;48.594;11.650;2022-10-16T04:18:57;96737.44;;;13.26
40624;BMP280;26325;48.594;11.650;2022-10-16T04:21:22;96729.69;;;13.31
40624;BMP280;26325;48.594;11.650;2022-10-16T04:23:48;96728.91;;;13.30
40624;BMP280;26325;48.594;11.650;2022-10-16T04:26:14;96723.44;;;13.27
40624;BMP280;26325;48.594;11.650;2022-10-16T04:28:40;96725.84;;;13.38
40624;BMP280;26325;48.594;11.650;2022-10-16T04:31:06;96734.66;;;13.37
40624;BMP280;26325;48.594;11.650;2022-10-16T04:33:31;96729.75;;;13.45
40624;BMP280;26325;48.594;11.650;2022-10-16T04:35:58;96726.94;;;13.61
40624;BMP280;26325;48.594;11.650;2022-10-16T04:38:24;96714.69;;;13.42
40624;BMP280;26325;48.594;11.650;2022-10-16T04:40:50;96715.78;;;13.56
40624;BMP280;26325;48.594;11.650;2022-10-16T04:43:15;96715.53;;;13.57
40624;BMP280;26325;48.594;11.650;2022-10-16T04:45:41;96723.56;;;13.56
40624;BMP280;26325;48.594;11.650;2022-10-16T04:48:08;96727.97;;;13.55
40624;BMP280;26325;48.594;11.650;2022-10-16T04:50:36;96723.56;;;13.56
40624;BMP280;26325;48.594;11.650;2022-10-16T04:53:02;96725.94;;;13.62
40624;BMP280;26325;48.594;11.650;2022-10-16T04:55:27;96728.81;;;13.66
40624;BMP280;26325;48.594;11.650;2022-10-16T04:57:53;96736.56;;;13.56
40624;BMP280;26325;48.594;11.650;2022-10-16T05:00:19;96734.78;;;13.66
40624;BMP280;26325;48.594;11.650;2022-10-16T05:02:44;96740.75;;;13.67
40624;BMP280;26325;48.594;11.650;2022-10-16T05:05:12;96725.69;;;13.64
40624;BMP280;26325;48.594;11.650;2022-10-16T05:07:37;96719.16;;;13.56
40624;BMP280;26325;48.594;11.650;2022-10-16T05:10:06;96724.16;;;13.68
40624;BMP280;26325;48.594;11.650;2022-10-16T05:12:32;96730.81;;;13.54
40624;BMP280;26325;48.594;11.650;2022-10-16T05:14:58;96732.63;;;13.53
40624;BMP280;26325;48.594;11.650;2022-10-16T05:17:24;96738.16;;;13.71
40624;BMP280;26325;48.594;11.650;2022-10-16T05:19:50;96738.16;;;13.76
40624;BMP280;26325;48.594;11.650;2022-10-16T05:22:16;96732.72;;;13.73
40624;BMP280;26325;48.594;11.650;2022-10-16T05:24:41;96728.81;;;13.71
40624;BMP280;26325;48.594;11.650;2022-10-16T05:27:07;96725.19;;;13.71
40624;BMP280;26325;48.594;11.650;2022-10-16T05:29:32;96724.66;;;13.65
40624;BMP280;26325;48.594;11.650;2022-10-16T05:31:57;96721.50;;;13.58
40624;BMP280;26325;48.594;11.650;2022-10-16T05:34:23;96732.94;;;13.57
40624;BMP280;26325;48.594;11.650;2022-10-16T05:36:48;96729.59;;;13.66
40624;BMP280;26325;48.594;11.650;2022-10-16T05:39:14;96729.34;;;13.72
40624;BMP280;26325;48.594;11.650;2022-10-16T05:41:40;96734.53;;;13.72
40624;BMP280;26325;48.594;11.650;2022-10-16T05:44:06;96737.19;;;13.87
40624;BMP280;26325;48.594;11.650;2022-10-16T05:46:32;96742.66;;;13.91
40624;BMP280;26325;48.594;11.650;2022-10-16T05:48:57;96746.34;;;14.09
40624;BMP280;26325;48.594;11.650;2022-10-16T05:51:23;96756.94;;;14.03
40624;BMP280;26325;48.594;11.650;2022-10-16T05:53:49;96756.69;;;13.90
40624;BMP280;26325;48.594;11.650;2022-10-16T05:56:15;96759.28;;;13.90
40624;BMP280;26325;48.594;11.650;2022-10-16T05:58:41;96773.81;;;13.91
40624;BMP280;26325;48.594;11.650;2022-10-16T06:01:10;96767.34;;;13.93
40624;BMP280;26325;48.594;11.650;2022-10-16T06:03:35;96773.03;;;13.95
40624;BMP280;26325;48.594;11.650;2022-10-16T06:06:15;96769.69;;;13.99
40624;BMP280;26325;48.594;11.650;2022-10-16T06:08:41;96771.47;;;13.84
40624;BMP280;26325;48.594;11.650;2022-10-16T06:11:10;96772.19;;;13.80
40624;BMP280;26325;48.594;11.650;2022-10-16T06:13:36;96776.41;;;13.95
40624;BMP280;26325;48.594;11.650;2022-10-16T06:16:02;96779.78;;;13.91
40624;BMP280;26325;48.594;11.650;2022-10-16T06:18:30;96785.88;;;14.40
40624;BMP280;26325;48.594;11.650;2022-10-16T06:20:56;96791.81;;;14.21
40624;BMP280;26325;48.594;11.650;2022-10-16T06:23:22;96797.00;;;14.21
40624;BMP280;26325;48.594;11.650;2022-10-16T06:25:48;96800.66;;;14.40
40624;BMP280;26325;48.594;11.650;2022-10-16T06:28:14;96811.59;;;14.47
40624;BMP280;26325;48.594;11.650;2022-10-16T06:30:40;96817.75;;;15.72
40624;BMP280;26325;48.594;11.650;2022-10-16T06:33:08;96816.41;;;17.67
40624;BMP280;26325;48.594;11.650;2022-10-16T06:35:33;96818.97;;;19.21
40624;BMP280;26325;48.594;11.650;2022-10-16T06:37:58;96821.13;;;20.03
40624;BMP280;26325;48.594;11.650;2022-10-16T06:40:24;96822.59;;;19.25
40624;BMP280;26325;48.594;11.650;2022-10-16T06:42:49;96834.13;;;18.16
40624;BMP280;26325;48.594;11.650;2022-10-16T06:45:17;96841.63;;;17.76
40624;BMP280;26325;48.594;11.650;2022-10-16T06:47:42;96850.59;;;17.93
40624;BMP280;26325;48.594;11.650;2022-10-16T06:50:08;96850.50;;;21.22
40624;BMP280;26325;48.594;11.650;2022-10-16T06:52:34;96844.44;;;22.02
40624;BMP280;26325;48.594;11.650;2022-10-16T06:54:59;96846.00;;;20.80
40624;BMP280;26325;48.594;11.650;2022-10-16T06:57:25;96857.28;;;21.66
40624;BMP280;26325;48.594;11.650;2022-10-16T06:59:50;96845.84;;;21.40
40624;BMP280;26325;48.594;11.650;2022-10-16T07:02:16;96846.09;;;20.01
40624;BMP280;26325;48.594;11.650;2022-10-16T07:04:41;96851.94;;;19.22
40624;BMP280;26325;48.594;11.650;2022-10-16T07:07:07;96842.94;;;18.61
40624;BMP280;26325;48.594;11.650;2022-10-16T07:09:32;96847.56;;;17.82
40624;BMP280;26325;48.594;11.650;2022-10-16T07:12:00;96846.91;;;17.16
40624;BMP280;26325;48.594;11.650;2022-10-16T07:14:28;96860.53;;;17.41
40624;BMP280;26325;48.594;11.650;2022-10-16T07:16:53;96858.19;;;17.67
40624;BMP280;26325;48.594;11.650;2022-10-16T07:19:22;96863.91;;;18.38
40624;BMP280;26325;48.594;11.650;2022-10-16T07:21:47;96863.56;;;19.47
40624;BMP280;26325;48.594;11.650;2022-10-16T07:24:14;96864.59;;;21.47
40624;BMP280;26325;48.594;11.650;2022-10-16T07:26:41;96852.78;;;24.20
40624;BMP280;26325;48.594;11.650;2022-10-16T07:29:12;96861.88;;;26.25
40624;BMP280;26325;48.594;11.650;2022-10-16T07:31:38;96853.13;;;26.95
40624;BMP280;26325;48.594;11.650;2022-10-16T07:34:05;96879.13;;;25.44
40624;BMP280;26325;48.594;11.650;2022-10-16T07:36:30;96879.38;;;24.35
40624;BMP280;26325;48.594;11.650;2022-10-16T07:38:55;96895.59;;;22.72
40624;BMP280;26325;48.594;11.650;2022-10-16T07:41:21;96885.72;;;21.21
40624;BMP280;26325;48.594;11.650;2022-10-16T07:43:50;96872.66;;;20.95
40624;BMP280;26325;48.594;11.650;2022-10-16T07:46:16;96878.97;;;20.94
40624;BMP280;26325;48.594;11.650;2022-10-16T07:48:42;96891.03;;;21.29
40624;BMP280;26325;48.594;11.650;2022-10-16T07:51:11;96868.38;;;21.63
40624;BMP280;26325;48.594;11.650;2022-10-16T07:53:37;96881.09;;;20.70
40624;BMP280;26325;48.594;11.650;2022-10-16T07:56:05;96898.41;;;20.71
40624;BMP280;26325;48.594;11.650;2022-10-16T07:58:31;96887.97;;;21.36
40624;BMP280;26325;48.594;11.650;2022-10-16T08:00:57;96898.16;;;21.50
40624;BMP280;26325;48.594;11.650;2022-10-16T08:03:24;96895.38;;;21.55
40624;BMP280;26325;48.594;11.650;2022-10-16T08:05:49;96898.41;;;21.92
40624;BMP280;26325;48.594;11.650;2022-10-16T08:08:16;96891.28;;;22.30
40624;BMP280;26325;48.594;11.650;2022-10-16T08:10:44;96901.47;;;22.61
40624;BMP280;26325;48.594;11.650;2022-10-16T08:13:10;96892.88;;;22.48
40624;BMP280;26325;48.594;11.650;2022-10-16T08:15:35;96907.38;;;22.83
40624;BMP280;26325;48.594;11.650;2022-10-16T08:18:02;96889.88;;;22.62
40624;BMP280;26325;48.594;11.650;2022-10-16T08:20:29;96912.53;;;23.13
40624;BMP280;26325;48.594;11.650;2022-10-16T08:22:55;96905.88;;;23.32
40624;BMP280;26325;48.594;11.650;2022-10-16T08:25:21;96911.41;;;23.06
40624;BMP280;26325;48.594;11.650;2022-10-16T08:27:47;96915.00;;;23.26
40624;BMP280;26325;48.594;11.650;2022-10-16T08:30:13;96911.56;;;23.59
40624;BMP280;26325;48.594;11.650;2022-10-16T08:32:38;96925.56;;;23.34
40624;BMP280;26325;48.594;11.650;2022-10-16T08:35:04;96924.94;;;23.21
40624;BMP280;26325;48.594;11.650;2022-10-16T08:37:30;96935.03;;;23.35
40624;BMP280;26325;48.594;11.650;2022-10-16T08:39:56;96935.25;;;23.92
40624;BMP280;26325;48.594;11.650;2022-10-16T08:47:55;96925.13;;;24.47
40624;BMP280;26325;48.594;11.650;2022-10-16T08:50:27;96916.09;;;24.20
40624;BMP280;26325;48.594;11.650;2022-10-16T08:52:53;96922.06;;;24.37
40624;BMP280;26325;48.594;11.650;2022-10-16T08:55:46;96931.94;;;24.56
40624;BMP280;26325;48.594;11.650;2022-10-16T08:58:18;96926.72;;;24.76
40624;BMP280;26325;48.594;11.650;2022-10-16T09:00:54;96927.25;;;24.90
40624;BMP280;26325;48.594;11.650;2022-10-16T09:03:24;96929.63;;;24.83
40624;BMP280;26325;48.594;11.650;2022-10-16T09:11:18;96922.31;;;24.52
40624;BMP280;26325;48.594;11.650;2022-10-16T09:13:52;96927.63;;;24.15
40624;BMP280;26325;48.594;11.650;2022-10-16T09:16:39;96924.31;;;24.55
40624;BMP280;26325;48.594;11.650;2022-10-16T09:19:27;96933.38;;;24.82
40624;BMP280;26325;48.594;11.650;2022-10-16T09:21:54;96929.59;;;24.63
40624;BMP280;26325;48.594;11.650;2022-10-16T09:24:23;96918.66;;;24.73
40624;BMP280;26325;48.594;11.650;2022-10-16T09:26:50;96942.94;;;24.66
40624;BMP280;26325;48.594;11.650;2022-10-16T09:29:18;96937.22;;;25.33
40624;BMP280;26325;48.594;11.650;2022-10-16T09:31:50;96948.78;;;25.28
40624;BMP280;26325;48.594;11.650;2022-10-16T09:34:36;96960.78;;;25.46
40624;BMP280;26325;48.594;11.650;2022-10-16T09:37:08;96966.50;;;25.28
40624;BMP280;26325;48.594;11.650;2022-10-16T09:39:46;96968.06;;;25.80
40624;BMP280;26325;48.594;11.650;2022-10-16T09:42:32;96972.69;;;25.83
40624;BMP280;26325;48.594;11.650;2022-10-16T09:44:59;96950.03;;;25.62
40624;BMP280;26325;48.594;11.650;2022-10-16T09:47:28;96963.69;;;25.64
40624;BMP280;26325;48.594;11.650;2022-10-16T09:50:02;96957.69;;;25.16
40624;BMP280;26325;48.594;11.650;2022-10-16T09:52:31;96967.09;;;25.85
40624;BMP280;26325;48.594;11.650;2022-10-16T09:55:08;96958.06;;;26.17
40624;BMP280;26325;48.594;11.650;2022-10-16T09:57:51;96972.50;;;26.20
40624;BMP280;26325;48.594;11.650;2022-10-16T10:00:17;96978.00;;;25.83
40624;BMP280;26325;48.594;11.650;2022-10-16T10:02:43;96977.63;;;25.93
40624;BMP280;26325;48.594;11.650;2022-10-16T10:05:26;96966.31;;;26.16
40624;BMP280;26325;48.594;11.650;2022-10-16T10:08:02;96976.66;;;26.41
40624;BMP280;26325;48.594;11.650;2022-10-16T10:10:41;96988.81;;;26.89
40624;BMP280;26325;48.594;11.650;2022-10-16T10:13:20;96974.78;;;27.12
40624;BMP280;26325;48.594;11.650;2022-10-16T10:15:46;96980.78;;;27.09
40624;BMP280;26325;48.594;11.650;2022-10-16T10:18:18;96990.00;;;27.38
40624;BMP280;26325;48.594;11.650;2022-10-16T10:20:45;96978.53;;;27.34
40624;BMP280;26325;48.594;11.650;2022-10-16T10:23:24;96965.09;;;27.66
40624;BMP280;26325;48.594;11.650;2022-10-16T10:31:12;96950.34;;;27.30
40624;BMP280;26325;48.594;11.650;2022-10-16T10:36:42;96951.44;;;28.21
40624;BMP280;26325;48.594;11.650;2022-10-16T10:39:27;96968.88;;;27.80
40624;BMP280;26325;48.594;11.650;2022-10-16T10:44:34;96953.81;;;28.10
40624;BMP280;26325;48.594;11.650;2022-10-16T11:01:13;96966.19;;;26.79
40624;BMP280;26325;48.594;11.650;2022-10-16T11:06:30;96968.03;;;27.76
40624;BMP280;26325;48.594;11.650;2022-10-16T11:11:51;96962.44;;;28.34
40624;BMP280;26325;48.594;11.650;2022-10-16T11:14:22;96966.44;;;28.74
40624;BMP280;26325;48.594;11.650;2022-10-16T11:17:10;96961.97;;;29.08
40624;BMP280;26325;48.594;11.650;2022-10-16T11:19:45;96972.03;;;28.84
40624;BMP280;26325;48.594;11.650;2022-10-16T11:22:44;96972.16;;;29.21
40624;BMP280;26325;48.594;11.650;2022-10-16T11:25:30;96965.94;;;28.53
40624;BMP280;26325;48.594;11.650;2022-10-16T11:30:34;96968.13;;;30.20
40624;BMP280;26325;48.594;11.650;2022-10-16T11:38:28;96975.00;;;31.08
40624;BMP280;26325;48.594;11.650;2022-10-16T11:40:56;96955.03;;;30.96
40624;BMP280;26325;48.594;11.650;2022-10-16T11:43:28;96945.88;;;30.31
40624;BMP280;26325;48.594;11.650;2022-10-16T11:45:58;96959.28;;;30.78
40624;BMP280;26325;48.594;11.650;2022-10-16T11:48:57;96954.47;;;30.21
40624;BMP280;26325;48.594;11.650;2022-10-16T11:54:18;96942.59;;;29.26
40624;BMP280;26325;48.594;11.650;2022-10-16T11:56:46;96960.22;;;28.82
40624;BMP280;26325;48.594;11.650;2022-10-16T11:59:28;96935.16;;;28.98
40624;BMP280;26325;48.594;11.650;2022-10-16T12:04:51;96949.22;;;27.42
40624;BMP280;26325;48.594;11.650;2022-10-16T12:07:21;96952.50;;;27.01
40624;BMP280;26325;48.594;11.650;2022-10-16T12:09:48;96949.34;;;27.72
40624;BMP280;26325;48.594;11.650;2022-10-16T12:15:00;96957.72;;;28.58
40624;BMP280;26325;48.594;11.650;2022-10-16T12:17:34;96958.38;;;29.01
40624;BMP280;26325;48.594;11.650;2022-10-16T12:20:30;96969.06;;;29.19
40624;BMP280;26325;48.594;11.650;2022-10-16T12:23:20;96949.50;;;28.33
40624;BMP280;26325;48.594;11.650;2022-10-16T12:25:54;96943.16;;;27.42
40624;BMP280;26325;48.594;11.650;2022-10-16T12:28:22;96949.25;;;27.19
40624;BMP280;26325;48.594;11.650;2022-10-16T12:31:14;96952.81;;;26.76
40624;BMP280;26325;48.594;11.650;2022-10-16T12:33:40;96944.94;;;26.33
40624;BMP280;26325;48.594;11.650;2022-10-16T12:36:26;96946.06;;;26.43
40624;BMP280;26325;48.594;11.650;2022-10-16T12:38:52;96953.34;;;26.35
40624;BMP280;26325;48.594;11.650;2022-10-16T12:41:32;96951.34;;;26.43
40624;BMP280;26325;48.594;11.650;2022-10-16T12:43:59;96963.00;;;26.62
40624;BMP280;26325;48.594;11.650;2022-10-16T12:51:41;96948.50;;;26.95
40624;BMP280;26325;48.594;11.650;2022-10-16T12:54:18;96938.69;;;26.95
40624;BMP280;26325;48.594;11.650;2022-10-16T13:10:41;96947.00;;;27.98
40624;BMP280;26325;48.594;11.650;2022-10-16T13:30:17;96971.50;;;30.79
40624;BMP280;26325;48.594;11.650;2022-10-16T13:32:45;96962.47;;;31.63
40624;BMP280;26325;48.594;11.650;2022-10-16T13:35:20;96973.28;;;31.73
40624;BMP280;26325;48.594;11.650;2022-10-16T13:37:45;96959.59;;;31.78
40624;BMP280;26325;48.594;11.650;2022-10-16T13:40:20;96958.81;;;31.45
40624;BMP280;26325;48.594;11.650;2022-10-16T13:42:46;96961.75;;;30.90
40624;BMP280;26325;48.594;11.650;2022-10-16T13:45:23;96974.47;;;29.56
40624;BMP280;26325;48.594;11.650;2022-10-16T13:47:49;96963.63;;;28.82
40624;BMP280;26325;48.594;11.650;2022-10-16T13:50:17;96971.06;;;29.07
40624;BMP280;26325;48.594;11.650;2022-10-16T13:52:48;96974.69;;;28.84
40624;BMP280;26325;48.594;11.650;2022-10-16T13:55:17;96973.41;;;28.78
40624;BMP280;26325;48.594;11.650;2022-10-16T13:57:43;96962.69;;;28.45
40624;BMP280;26325;48.594;11.650;2022-10-16T14:00:26;96963.19;;;28.50
40624;BMP280;26325;48.594;11.650;2022-10-16T14:03:04;96969.47;;;28.00
40624;BMP280;26325;48.594;11.650;2022-10-16T14:05:30;96963.63;;;28.82
40624;BMP280;26325;48.594;11.650;2022-10-16T14:07:55;96972.78;;;30.04
40624;BMP280;26325;48.594;11.650;2022-10-16T14:10:25;96966.28;;;29.31
40624;BMP280;26325;48.594;11.650;2022-10-16T14:13:05;96968.84;;;29.61
40624;BMP280;26325;48.594;11.650;2022-10-16T14:15:32;96980.19;;;28.19
40624;BMP280;26325;48.594;11.650;2022-10-16T14:17:59;96974.41;;;28.74
40624;BMP280;26325;48.594;11.650;2022-10-16T14:20:28;96976.25;;;27.59
40624;BMP280;26325;48.594;11.650;2022-10-16T14:23:01;96977.09;;;27.01
40624;BMP280;26325;48.594;11.650;2022-10-16T14:25:28;96972.00;;;27.70
40624;BMP280;26325;48.594;11.650;2022-10-16T14:30:27;96966.09;;;29.06
40624;BMP280;26325;48.594;11.650;2022-10-16T14:33:01;96962.63;;;29.20
40624;BMP280;26325;48.594;11.650;2022-10-16T14:35:29;96964.31;;;29.80
40624;BMP280;26325;48.594;11.650;2022-10-16T14:37:56;96958.13;;;29.06
40624;BMP280;26325;48.594;11.650;2022-10-16T14:40:32;96969.53;;;28.30
40624;BMP280;26325;48.594;11.650;2022-10-16T14:42:58;96977.44;;;27.35
40624;BMP280;26325;48.594;11.650;2022-10-16T14:45:28;96977.84;;;28.74
40624;BMP280;26325;48.594;11.650;2022-10-16T14:48:00;96968.09;;;28.78
40624;BMP280;26325;48.594;11.650;2022-10-16T14:50:27;96977.50;;;28.30
40624;BMP280;26325;48.594;11.650;2022-10-16T14:52:52;96976.44;;;28.20
40624;BMP280;26325;48.594;11.650;2022-10-16T14:55:18;96974.41;;;27.87
40624;BMP280;26325;48.594;11.650;2022-10-16T14:57:44;96975.78;;;27.07
40624;BMP280;26325;48.594;11.650;2022-10-16T15:00:17;96978.75;;;27.29
40624;BMP280;26325;48.594;11.650;2022-10-16T15:02:44;96986.22;;;26.45
40624;BMP280;26325;48.594;11.650;2022-10-16T15:05:15;96977.38;;;25.66
40624;BMP280;26325;48.594;11.650;2022-10-16T15:07:41;96983.25;;;25.52
40624;BMP280;26325;48.594;11.650;2022-10-16T15:10:07;96976.78;;;26.13
40624;BMP280;26325;48.594;11.650;2022-10-16T15:12:32;96993.22;;;25.86
40624;BMP280;26325;48.594;11.650;2022-10-16T15:14:58;96988.84;;;25.30
40624;BMP280;26325;48.594;11.650;2022-10-16T15:17:23;96988.00;;;24.90
40624;BMP280;26325;48.594;11.650;2022-10-16T15:19:49;96977.94;;;24.47
40624;BMP280;26325;48.594;11.650;2022-10-16T15:22:14;96982.22;;;24.23
40624;BMP280;26325;48.594;11.650;2022-10-16T15:24:40;96999.03;;;23.77
40624;BMP280;26325;48.594;11.650;2022-10-16T15:27:05;96994.72;;;23.48
40624;BMP280;26325;48.594;11.650;2022-10-16T15:29:31;97003.22;;;23.29
40624;BMP280;26325;48.594;11.650;2022-10-16T15:31:58;97002.19;;;22.91
40624;BMP280;26325;48.594;11.650;2022-10-16T15:34:24;96992.56;;;22.79
40624;BMP280;26325;48.594;11.650;2022-10-16T15:36:49;97003.44;;;22.56
40624;BMP280;26325;48.594;11.650;2022-10-16T15:39:17;96998.59;;;22.41
40624;BMP280;26325;48.594;11.650;2022-10-16T15:41:44;97004.94;;;21.89
40624;BMP280;26325;48.594;11.650;2022-10-16T15:44:09;97005.50;;;21.86
40624;BMP280;26325;48.594;11.650;2022-10-16T15:46:35;96993.84;;;21.92
40624;BMP280;26325;48.594;11.650;2022-10-16T15:49:02;97002.22;;;21.81
40624;BMP280;26325;48.594;11.650;2022-10-16T15:51:28;96994.28;;;21.03
40624;BMP280;26325;48.594;11.650;2022-10-16T15:53:56;97006.00;;;20.71
40624;BMP280;26325;48.594;11.650;2022-10-16T15:56:22;97021.25;;;20.69
40624;BMP280;26325;48.594;11.650;2022-10-16T15:58:49;97003.53;;;20.75